Aigle Des Mers — FO4883 — position and weather

sailwx.info

Track history (hours):
 
Tides and Currents Weather Stations Pressure Air Temp Water Temp Dewpoint Dewpoint Depression Visibility Wind Speed Wind Dir Waves Ship Positions

Aigle Des Mers

Last reported at 2016-Aug-26 03:33 UTC. Time now 2016-Aug-27 04:38 UTC.
Position N 48°06' W 004°19'.

Type: Fishing. MMSI: 227318010.

Date/timePositionNaut miles runAvg speedWind from/ knotsBaromVisibWave heightAir tempDewpointWater temp
2016-Aug-26 03:33N 48°06' W 004°19'6 6.4
2016-Aug-26 02:34N 48°12' W 004°24'8 8.0
2016-Aug-26 01:34N 48°08' W 004°34'4 4.1
2016-Aug-26 00:33N 48°09' W 004°29'5 5.0
2016-Aug-25 23:33N 48°06' W 004°34'2 2.5
2016-Aug-25 22:33N 48°08' W 004°36'8 7.8
2016-Aug-25 21:34N 48°08' W 004°24'4 4.0
2016-Aug-25 20:34N 48°06' W 004°20'0 0.0
2016-Aug-25 19:33N 48°06' W 004°20'0 0.0
2016-Aug-25 07:33N 48°06' W 004°20'0 0.0
2016-Aug-25 06:33N 48°06' W 004°20'6 2.9
2016-Aug-25 04:34N 48°08' W 004°28'1 1.3
2016-Aug-25 03:33N 48°07' W 004°29'5 4.7
2016-Aug-25 02:33N 48°08' W 004°36'1 1.4
2016-Aug-25 01:33N 48°08' W 004°38'3 3.3
2016-Aug-25 00:34N 48°08' W 004°33'3 2.9
2016-Aug-24 23:33N 48°07' W 004°29'4 3.6
2016-Aug-24 22:33N 48°07' W 004°34'2 1.8
2016-Aug-24 21:34N 48°08' W 004°37'1 1.1
2016-Aug-24 20:33N 48°08' W 004°35'1 1.5
2016-Aug-24 19:34N 48°07' W 004°33'8 7.6
2016-Aug-24 18:33N 48°07' W 004°22'2 0.1
2016-Aug-24 06:24N 48°06' W 004°19'5 2.9
2016-Aug-24 04:34N 48°08' W 004°27'1 1.3
2016-Aug-24 03:34N 48°07' W 004°25'2 2.0
2016-Aug-24 02:34N 48°09' W 004°23'4 4.4
2016-Aug-24 01:33N 48°07' W 004°30'4 3.9
2016-Aug-24 00:34N 48°08' W 004°35'2 1.5
2016-Aug-23 23:33N 48°09' W 004°38'1 0.7
2016-Aug-23 22:33N 48°09' W 004°38'1 1.2
2016-Aug-23 21:33N 48°08' W 004°38'1 0.9
2016-Aug-23 20:33N 48°07' W 004°37'4 4.1
2016-Aug-23 19:33N 48°07' W 004°30'7 7.1
2016-Aug-23 18:33N 48°06' W 004°20'0 0.0
2016-Aug-23 05:33N 48°06' W 004°19'2 2.5
2016-Aug-23 04:34N 48°07' W 004°22'7 7.2
2016-Aug-23 03:34N 48°08' W 004°33'2 2.2
2016-Aug-23 02:34N 48°07' W 004°31'4 3.9
2016-Aug-23 01:34N 48°08' W 004°36'2 1.9
2016-Aug-23 00:33N 48°09' W 004°39'1 0.6
2016-Aug-22 23:33N 48°10' W 004°38'7 7.1
2016-Aug-22 22:33N 48°14' W 004°47'3 2.7
2016-Aug-22 21:33N 48°11' W 004°45'6 6.5
2016-Aug-22 20:33N 48°08' W 004°37'3 2.6
2016-Aug-22 19:33N 48°08' W 004°33'4 4.1
2016-Aug-22 18:33N 48°07' W 004°27'5 0.4
2016-Aug-22 05:19N 48°06' W 004°19'0 0.2
2016-Aug-22 04:33N 48°06' W 004°20'7 6.5
2016-Aug-22 03:33N 48°07' W 004°29'2 1.8
2016-Aug-22 02:34N 48°09' W 004°30'2 1.8
2016-Aug-22 01:34N 48°07' W 004°32'1 0.9
2016-Aug-22 00:34N 48°07' W 004°31'5 5.3
2016-Aug-21 23:34N 48°10' W 004°25'5 4.6
2016-Aug-21 22:33N 48°08' W 004°31'5 4.6
2016-Aug-21 21:33N 48°07' W 004°38'2 1.6
2016-Aug-21 20:33N 48°08' W 004°40'2 2.1
2016-Aug-21 19:33N 48°08' W 004°37'9 8.9
2016-Aug-21 18:33N 48°07' W 004°24'  
2016-Aug-19 03:33N 48°06' W 004°19'0 0.1
2016-Aug-19 02:33N 48°06' W 004°20'0 0.0
2016-Aug-19 01:33N 48°06' W 004°20'9 8.6
2016-Aug-19 00:33N 48°08' W 004°32'6 5.9
2016-Aug-18 23:33N 48°09' W 004°41'2 1.5
2016-Aug-18 22:33N 48°10' W 004°43'1 0.6
2016-Aug-18 21:34N 48°09' W 004°42'4 4.5
2016-Aug-18 20:34N 48°14' W 004°39'2 2.3
2016-Aug-18 19:34N 48°11' W 004°39'8 7.8
2016-Aug-18 18:33N 48°12' W 004°27'7 7.1
2016-Aug-18 17:32N 48°06' W 004°20'1 0.0
2016-Aug-17 23:33N 48°06' W 004°19'5 5.1
2016-Aug-17 22:34N 48°10' W 004°24'6 5.7
2016-Aug-17 21:34N 48°08' W 004°32'6 6.2
2016-Aug-17 20:33N 48°09' W 004°41'0 0.5
2016-Aug-17 19:34N 48°10' W 004°41'7 7.2
2016-Aug-17 18:33N 48°09' W 004°31'7 7.4
2016-Aug-17 17:33N 48°07' W 004°20'1 1.5
2016-Aug-17 16:33N 48°06' W 004°20'0 0.0
2016-Aug-17 01:33N 48°06' W 004°19'9 8.9
2016-Aug-17 00:34N 48°09' W 004°32'5 4.8
2016-Aug-16 23:33N 48°09' W 004°39'1 1.4
2016-Aug-16 22:34N 48°10' W 004°41'3 2.7
2016-Aug-16 21:34N 48°11' W 004°44'1 0.6
2016-Aug-16 20:33N 48°12' W 004°44'7 6.6
2016-Aug-16 19:34N 48°09' W 004°34'10 9.5
2016-Aug-16 18:33N 48°07' W 004°21'1 0.1
2016-Aug-16 10:33N 48°06' W 004°20'0 0.1
2016-Aug-16 09:33N 48°06' W 004°20'0 0.0
2016-Aug-16 08:33N 48°06' W 004°20'0 0.0
2016-Aug-16 07:33N 48°06' W 004°20'0 0.0
2016-Aug-16 04:33N 48°06' W 004°20'  
Track history (hours):
 
Tides and Currents Weather Stations Pressure Air Temp Water Temp Dewpoint Dewpoint Depression Visibility Wind Speed Wind Dir Waves Ship Positions

Aigle Des Mers

Last reported at 2016-Aug-26 03:33 UTC. Time now 2016-Aug-27 04:38 UTC.
Position N 48°06' W 004°19'.

Type: Fishing. MMSI: 227318010.

Date/timePositionNaut miles runAvg speedWind from/ knotsBaromVisibWave heightAir tempDewpointWater temp
2016-Aug-26 03:33N 48°06' W 004°19'6 6.4
2016-Aug-26 02:34N 48°12' W 004°24'8 8.0
2016-Aug-26 01:34N 48°08' W 004°34'4 4.1
2016-Aug-26 00:33N 48°09' W 004°29'5 5.0
2016-Aug-25 23:33N 48°06' W 004°34'2 2.5
2016-Aug-25 22:33N 48°08' W 004°36'8 7.8
2016-Aug-25 21:34N 48°08' W 004°24'4 4.0
2016-Aug-25 20:34N 48°06' W 004°20'0 0.0
2016-Aug-25 19:33N 48°06' W 004°20'0 0.0
2016-Aug-25 07:33N 48°06' W 004°20'0 0.0
2016-Aug-25 06:33N 48°06' W 004°20'6 2.9
2016-Aug-25 04:34N 48°08' W 004°28'1 1.3
2016-Aug-25 03:33N 48°07' W 004°29'5 4.7
2016-Aug-25 02:33N 48°08' W 004°36'1 1.4
2016-Aug-25 01:33N 48°08' W 004°38'3 3.3
2016-Aug-25 00:34N 48°08' W 004°33'3 2.9
2016-Aug-24 23:33N 48°07' W 004°29'4 3.6
2016-Aug-24 22:33N 48°07' W 004°34'2 1.8
2016-Aug-24 21:34N 48°08' W 004°37'1 1.1
2016-Aug-24 20:33N 48°08' W 004°35'1 1.5
2016-Aug-24 19:34N 48°07' W 004°33'8 7.6
2016-Aug-24 18:33N 48°07' W 004°22'2 0.1
2016-Aug-24 06:24N 48°06' W 004°19'5 2.9
2016-Aug-24 04:34N 48°08' W 004°27'1 1.3
2016-Aug-24 03:34N 48°07' W 004°25'2 2.0
2016-Aug-24 02:34N 48°09' W 004°23'4 4.4
2016-Aug-24 01:33N 48°07' W 004°30'4 3.9
2016-Aug-24 00:34N 48°08' W 004°35'2 1.5
2016-Aug-23 23:33N 48°09' W 004°38'1 0.7
2016-Aug-23 22:33N 48°09' W 004°38'1 1.2
2016-Aug-23 21:33N 48°08' W 004°38'1 0.9
2016-Aug-23 20:33N 48°07' W 004°37'4 4.1
2016-Aug-23 19:33N 48°07' W 004°30'7 7.1
2016-Aug-23 18:33N 48°06' W 004°20'0 0.0
2016-Aug-23 05:33N 48°06' W 004°19'2 2.5
2016-Aug-23 04:34N 48°07' W 004°22'7 7.2
2016-Aug-23 03:34N 48°08' W 004°33'2 2.2
2016-Aug-23 02:34N 48°07' W 004°31'4 3.9
2016-Aug-23 01:34N 48°08' W 004°36'2 1.9
2016-Aug-23 00:33N 48°09' W 004°39'1 0.6
2016-Aug-22 23:33N 48°10' W 004°38'7 7.1
2016-Aug-22 22:33N 48°14' W 004°47'3 2.7
2016-Aug-22 21:33N 48°11' W 004°45'6 6.5
2016-Aug-22 20:33N 48°08' W 004°37'3 2.6
2016-Aug-22 19:33N 48°08' W 004°33'4 4.1
2016-Aug-22 18:33N 48°07' W 004°27'5 0.4
2016-Aug-22 05:19N 48°06' W 004°19'0 0.2
2016-Aug-22 04:33N 48°06' W 004°20'7 6.5
2016-Aug-22 03:33N 48°07' W 004°29'2 1.8
2016-Aug-22 02:34N 48°09' W 004°30'2 1.8
2016-Aug-22 01:34N 48°07' W 004°32'1 0.9
2016-Aug-22 00:34N 48°07' W 004°31'5 5.3
2016-Aug-21 23:34N 48°10' W 004°25'5 4.6
2016-Aug-21 22:33N 48°08' W 004°31'5 4.6
2016-Aug-21 21:33N 48°07' W 004°38'2 1.6
2016-Aug-21 20:33N 48°08' W 004°40'2 2.1
2016-Aug-21 19:33N 48°08' W 004°37'9 8.9
2016-Aug-21 18:33N 48°07' W 004°24'  
2016-Aug-19 03:33N 48°06' W 004°19'0 0.1
2016-Aug-19 02:33N 48°06' W 004°20'0 0.0
2016-Aug-19 01:33N 48°06' W 004°20'9 8.6
2016-Aug-19 00:33N 48°08' W 004°32'6 5.9
2016-Aug-18 23:33N 48°09' W 004°41'2 1.5
2016-Aug-18 22:33N 48°10' W 004°43'1 0.6
2016-Aug-18 21:34N 48°09' W 004°42'4 4.5
2016-Aug-18 20:34N 48°14' W 004°39'2 2.3
2016-Aug-18 19:34N 48°11' W 004°39'8 7.8
2016-Aug-18 18:33N 48°12' W 004°27'7 7.1
2016-Aug-18 17:32N 48°06' W 004°20'1 0.0
2016-Aug-17 23:33N 48°06' W 004°19'5 5.1
2016-Aug-17 22:34N 48°10' W 004°24'6 5.7
2016-Aug-17 21:34N 48°08' W 004°32'6 6.2
2016-Aug-17 20:33N 48°09' W 004°41'0 0.5
2016-Aug-17 19:34N 48°10' W 004°41'7 7.2
2016-Aug-17 18:33N 48°09' W 004°31'7 7.4
2016-Aug-17 17:33N 48°07' W 004°20'1 1.5
2016-Aug-17 16:33N 48°06' W 004°20'0 0.0
2016-Aug-17 01:33N 48°06' W 004°19'9 8.9
2016-Aug-17 00:34N 48°09' W 004°32'5 4.8
2016-Aug-16 23:33N 48°09' W 004°39'1 1.4
2016-Aug-16 22:34N 48°10' W 004°41'3 2.7
2016-Aug-16 21:34N 48°11' W 004°44'1 0.6
2016-Aug-16 20:33N 48°12' W 004°44'7 6.6
2016-Aug-16 19:34N 48°09' W 004°34'10 9.5
2016-Aug-16 18:33N 48°07' W 004°21'1 0.1
2016-Aug-16 10:33N 48°06' W 004°20'0 0.1
2016-Aug-16 09:33N 48°06' W 004°20'0 0.0
2016-Aug-16 08:33N 48°06' W 004°20'0 0.0
2016-Aug-16 07:33N 48°06' W 004°20'0 0.0
2016-Aug-16 04:33N 48°06' W 004°20'  

Dump ship's entire track history